Time;durP1;ratioP1;P1;durP2;ratioP2;P2;SDS_P1;SDS_P2;PMS_P1;PMS_P2;Temp;Humidity;BMP_temperature;BMP_pressure;BME280_temperature;BME280_humidity;BME280_pressure;Samples;Min_cycle;Max_cycle;Signal;HPM_P1;HPM_P2
2021/11/11 00:00:58;;;;;;;;;;;;;;;18.05;55.92;100180.78;2059153;28;19910;-39
2021/11/11 00:01:59;;;;;;;;;;;;;;;18.05;55.84;100177.19;2061781;28;19917;-39
2021/11/11 00:03:00;;;;;;;;;;;;;;;18.03;56.03;100176.47;2058827;28;19917;-39
2021/11/11 00:04:00;;;;;;;;;;;;;;;18.02;55.98;100188.41;2061185;28;19996;-39
2021/11/11 00:05:00;;;;;;;;;;;;;;;18.03;56.10;100190.09;2060328;28;19944;-39
2021/11/11 00:06:01;;;;;;;;;;;;;;;18.02;56.01;100189.25;2057787;28;19925;-39
2021/11/11 00:07:04;;;;;;;;;;;;;;;18.02;55.95;100188.41;2061675;28;20347;-39
2021/11/11 00:08:04;;;;;;;;;;;;;;;18.00;56.04;100192.09;2059086;28;20467;-39
2021/11/11 00:09:05;;;;;;;;;;;;;;;18.00;55.98;100186.66;2061046;28;19941;-39
2021/11/11 00:10:07;;;;;;;;;;;;;;;17.99;56.12;100184.09;2060722;28;20430;-39
2021/11/11 00:11:07;;;;;;;;;;;;;;;17.98;56.08;100191.41;2059052;28;20248;-39
2021/11/11 00:12:07;;;;;;;;;;;;;;;17.99;55.96;100195.84;2059869;28;20309;-39
2021/11/11 00:13:08;;;;;;;;;;;;;;;17.99;56.07;100200.44;2062831;28;20304;-39
2021/11/11 00:14:09;;;;;;;;;;;;;;;17.97;56.01;100203.31;2060528;28;20227;-39
2021/11/11 00:15:12;;;;;;;;;;;;;;;17.98;56.10;100213.22;2059795;28;19957;-39
2021/11/11 00:16:12;;;;;;;;;;;;;;;17.99;56.03;100214.09;2057421;28;20344;-39
2021/11/11 00:17:12;;;;;;;;;;;;;;;17.98;55.98;100215.97;2059018;28;19932;-39
2021/11/11 00:18:13;;;;;;;;;;;;;;;17.99;56.11;100217.66;2061380;28;19918;-39
2021/11/11 00:19:14;;;;;;;;;;;;;;;17.99;56.12;100220.41;2059843;28;19959;-39
2021/11/11 00:20:16;;;;;;;;;;;;;;;18.00;55.93;100219.38;2060531;28;20351;-39
2021/11/11 00:21:16;;;;;;;;;;;;;;;18.00;55.90;100219.38;2062049;28;20672;-39
2021/11/11 00:22:17;;;;;;;;;;;;;;;18.00;55.96;100230.28;2061795;28;20411;-39
2021/11/11 00:23:17;;;;;;;;;;;;;;;18.02;56.00;100221.13;2062591;28;19925;-39
2021/11/11 00:24:18;;;;;;;;;;;;;;;18.00;56.07;100219.38;2059889;28;19917;-39
2021/11/11 00:25:19;;;;;;;;;;;;;;;18.00;55.85;100213.94;2063379;28;19921;-39
2021/11/11 00:26:20;;;;;;;;;;;;;;;17.99;56.05;100212.22;2059806;28;19910;-39
2021/11/11 00:27:20;;;;;;;;;;;;;;;18.00;55.95;100226.72;2060649;28;19917;-39
2021/11/11 00:28:20;;;;;;;;;;;;;;;18.00;55.82;100226.72;2061964;28;20506;-39
2021/11/11 00:29:21;;;;;;;;;;;;;;;18.00;55.86;100235.75;2060310;28;20044;-39
2021/11/11 00:30:22;;;;;;;;;;;;;;;17.99;55.96;100231.31;2059942;28;19928;-39
2021/11/11 00:31:22;;;;;;;;;;;;;;;18.00;55.91;100233.03;2060230;28;20427;-40
2021/11/11 00:32:23;;;;;;;;;;;;;;;17.98;55.93;100226.88;2060640;28;19960;-39
2021/11/11 00:33:23;;;;;;;;;;;;;;;17.99;55.93;100227.72;2059831;28;19928;-39
2021/11/11 00:34:24;;;;;;;;;;;;;;;17.98;55.98;100224.13;2061182;28;20634;-39
2021/11/11 00:35:25;;;;;;;;;;;;;;;17.98;55.95;100224.13;2059893;28;19984;-39
2021/11/11 00:36:26;;;;;;;;;;;;;;;17.97;56.07;100225.13;2059936;28;19933;-39
2021/11/11 00:37:26;;;;;;;;;;;;;;;17.97;56.10;100227.00;2056796;28;19952;-39
2021/11/11 00:38:26;;;;;;;;;;;;;;;17.96;56.08;100223.41;2059335;28;19979;-39
2021/11/11 00:39:26;;;;;;;;;;;;;;;17.96;56.17;100223.41;2060136;28;20359;-39
2021/11/11 00:40:28;;;;;;;;;;;;;;;17.95;56.21;100229.84;2059188;28;19921;-38
2021/11/11 00:41:28;;;;;;;;;;;;;;;17.95;56.05;100237.19;2061502;28;20168;-38
2021/11/11 00:42:29;;;;;;;;;;;;;;;17.94;56.04;100241.78;2059351;28;20005;-39
2021/11/11 00:43:29;;;;;;;;;;;;;;;17.93;56.18;100239.19;2058569;28;19957;-38
2021/11/11 00:44:29;;;;;;;;;;;;;;;17.94;56.20;100251.84;2061177;28;19917;-38
2021/11/11 00:45:30;;;;;;;;;;;;;;;17.93;56.22;100242.78;2058030;28;19918;-38
2021/11/11 00:46:31;;;;;;;;;;;;;;;17.92;56.28;100248.38;2059199;28;19910;-39
2021/11/11 00:47:32;;;;;;;;;;;;;;;17.91;56.14;100242.06;2062839;28;19984;-39
2021/11/11 00:48:33;;;;;;;;;;;;;;;17.91;56.03;100242.06;2059108;28;20044;-39
2021/11/11 00:49:34;;;;;;;;;;;;;;;17.90;56.25;100237.59;2060237;28;20328;-39
2021/11/11 00:50:35;;;;;;;;;;;;;;;17.90;56.25;100234.88;2060682;28;19924;-39
2021/11/11 00:51:36;;;;;;;;;;;;;;;17.89;56.19;100241.34;2058957;28;19987;-39
2021/11/11 00:52:37;;;;;;;;;;;;;;;17.88;56.16;100234.13;2060050;28;19918;-39
2021/11/11 00:53:38;;;;;;;;;;;;;;;17.88;56.31;100231.41;2059089;28;20351;-39
2021/11/11 00:54:39;;;;;;;;;;;;;;;17.87;56.44;100226.97;2059960;28;19918;-39
2021/11/11 00:55:40;;;;;;;;;;;;;;;17.86;56.42;100222.53;2061600;28;20308;-39
2021/11/11 00:56:40;;;;;;;;;;;;;;;17.87;56.34;100220.66;2060961;28;19953;-39
2021/11/11 00:57:41;;;;;;;;;;;;;;;17.85;56.30;100215.31;2059354;28;20399;-39
2021/11/11 00:58:41;;;;;;;;;;;;;;;17.84;56.52;100213.63;2064045;28;19917;-39
2021/11/11 00:59:42;;;;;;;;;;;;;;;17.84;56.30;100216.34;2059604;28;19914;-39
2021/11/11 01:00:43;;;;;;;;;;;;;;;17.84;56.25;100218.22;2059603;28;19914;-39
2021/11/11 01:01:43;;;;;;;;;;;;;;;17.82;56.28;100212.88;2058178;28;19917;-39
2021/11/11 01:02:46;;;;;;;;;;;;;;;17.82;56.41;100209.31;2060030;28;19964;-39
2021/11/11 01:03:49;;;;;;;;;;;;;;;17.82;56.42;100212.88;2060624;28;19944;-39
2021/11/11 01:04:49;;;;;;;;;;;;;;;17.82;56.38;100209.31;2059687;28;20441;-39
2021/11/11 01:05:49;;;;;;;;;;;;;;;17.81;56.48;100203.00;2061224;28;20212;-45
2021/11/11 01:06:50;;;;;;;;;;;;;;;17.81;56.35;100200.28;2061634;28;19976;-39
2021/11/11 01:07:51;;;;;;;;;;;;;;;17.81;56.58;100192.09;2060482;28;20442;-39
2021/11/11 01:08:53;;;;;;;;;;;;;;;17.80;56.38;100195.81;2059085;28;19924;-38
2021/11/11 01:09:53;;;;;;;;;;;;;;;17.80;56.38;100195.81;2061244;28;19917;-39
2021/11/11 01:10:54;;;;;;;;;;;;;;;17.80;56.51;100206.72;2060887;28;19924;-39
2021/11/11 01:11:55;;;;;;;;;;;;;;;17.80;56.40;100206.72;2056642;28;19917;-39
2021/11/11 01:12:55;;;;;;;;;;;;;;;17.80;56.43;100201.25;2058487;28;19913;-39
2021/11/11 01:13:56;;;;;;;;;;;;;;;17.80;56.44;100195.81;2061813;28;20637;-39
2021/11/11 01:14:56;;;;;;;;;;;;;;;17.81;56.55;100200.28;2060508;28;20003;-39
2021/11/11 01:15:57;;;;;;;;;;;;;;;17.81;56.42;100188.47;2061605;28;19945;-39
2021/11/11 01:16:58;;;;;;;;;;;;;;;17.80;56.31;100182.16;2057758;28;20168;-39
2021/11/11 01:17:59;;;;;;;;;;;;;;;17.82;56.25;100171.13;2059329;28;20024;-39
2021/11/11 01:19:00;;;;;;;;;;;;;;;17.81;56.39;100181.19;2063617;28;19925;-39
2021/11/11 01:20:00;;;;;;;;;;;;;;;17.82;56.50;100182.91;2058579;28;19957;-39
2021/11/11 01:21:01;;;;;;;;;;;;;;;17.82;56.25;100191.06;2060627;28;19917;-39
2021/11/11 01:22:02;;;;;;;;;;;;;;;17.82;56.48;100210.16;2060068;28;19922;-39
2021/11/11 01:23:03;;;;;;;;;;;;;;;17.83;56.32;100221.94;2059467;28;20173;-39
2021/11/11 01:24:03;;;;;;;;;;;;;;;17.84;56.35;100220.94;2060922;28;19967;-39
2021/11/11 01:25:05;;;;;;;;;;;;;;;17.83;56.32;100217.31;2059814;28;19913;-39
2021/11/11 01:26:07;;;;;;;;;;;;;;;17.83;56.23;100222.78;2062664;28;20379;-39
2021/11/11 01:27:07;;;;;;;;;;;;;;;17.83;56.20;100219.19;2058583;28;19909;-39
2021/11/11 01:28:08;;;;;;;;;;;;;;;17.83;56.18;100217.31;2057912;28;19917;-39
2021/11/11 01:29:09;;;;;;;;;;;;;;;17.83;56.38;100216.47;2059755;28;19917;-39
2021/11/11 01:30:09;;;;;;;;;;;;;;;17.83;56.15;100220.06;2059430;28;19928;-39
2021/11/11 01:31:10;;;;;;;;;;;;;;;17.83;56.39;100213.75;2061228;28;19945;-39
2021/11/11 01:32:10;;;;;;;;;;;;;;;17.83;56.39;100208.28;2059430;28;19924;-40
2021/11/11 01:33:12;;;;;;;;;;;;;;;17.82;56.15;100212.88;2061386;28;19953;-39
2021/11/11 01:34:12;;;;;;;;;;;;;;;17.83;56.31;100213.75;2059848;28;20089;-39
2021/11/11 01:35:14;;;;;;;;;;;;;;;17.83;56.24;100216.47;2060203;28;19925;-39
2021/11/11 01:36:15;;;;;;;;;;;;;;;17.82;56.20;100215.63;2060891;28;20311;-39
2021/11/11 01:37:15;;;;;;;;;;;;;;;17.82;56.17;100215.63;2058465;28;19922;-39
2021/11/11 01:38:16;;;;;;;;;;;;;;;17.81;56.20;100213.91;2057910;28;19921;-39
2021/11/11 01:39:16;;;;;;;;;;;;;;;17.82;56.30;100212.03;2059863;28;19922;-39
2021/11/11 01:40:17;;;;;;;;;;;;;;;17.82;56.24;100215.63;2060236;28;19917;-39
2021/11/11 01:41:18;;;;;;;;;;;;;;;17.81;56.16;100210.28;2059505;28;19928;-39
2021/11/11 01:42:18;;;;;;;;;;;;;;;17.80;56.29;100209.44;2059048;28;20520;-39
2021/11/11 01:43:19;;;;;;;;;;;;;;;17.81;56.30;100213.00;2058996;28;19955;-39
2021/11/11 01:44:20;;;;;;;;;;;;;;;17.79;56.27;100210.41;2062354;28;19920;-39
2021/11/11 01:45:28;;;;;;;;;;;;;;;17.79;56.32;100204.97;2059340;28;20369;-39
2021/11/11 01:46:28;;;;;;;;;;;;;;;17.79;56.31;100204.97;2058978;28;19917;-39
2021/11/11 01:47:29;;;;;;;;;;;;;;;17.80;56.46;100206.72;2060684;28;19979;-39
2021/11/11 01:48:29;;;;;;;;;;;;;;;17.80;56.38;100209.44;2059045;28;20291;-39
2021/11/11 01:49:29;;;;;;;;;;;;;;;17.79;56.25;100199.50;2061395;28;19920;-39
2021/11/11 01:50:30;;;;;;;;;;;;;;;17.78;56.50;100197.75;2060950;28;19923;-39
2021/11/11 01:51:31;;;;;;;;;;;;;;;17.78;56.30;100193.19;2060045;28;19913;-39
2021/11/11 01:52:31;;;;;;;;;;;;;;;17.78;56.30;100186.84;2062128;28;19924;-39
2021/11/11 01:53:33;;;;;;;;;;;;;;;17.79;56.39;100183.16;2061576;28;19918;-39
2021/11/11 01:54:33;;;;;;;;;;;;;;;17.78;56.23;100178.69;2060852;28;19959;-39
2021/11/11 01:55:33;;;;;;;;;;;;;;;17.79;56.19;100178.56;2061885;28;19917;-39
2021/11/11 01:56:34;;;;;;;;;;;;;;;17.80;56.35;100184.91;2059472;28;19921;-39
2021/11/11 01:57:34;;;;;;;;;;;;;;;17.81;56.24;100192.09;2062640;28;20498;-39
2021/11/11 01:58:35;;;;;;;;;;;;;;;17.83;56.37;100197.38;2060930;28;19917;-39
2021/11/11 01:59:35;;;;;;;;;;;;;;;17.84;56.34;100202.72;2064927;28;20895;-39
2021/11/11 02:00:39;;;;;;;;;;;;;;;17.85;56.24;100204.41;2061934;28;20016;-39
2021/11/11 02:01:39;;;;;;;;;;;;;;;17.85;56.14;100196.25;2059966;28;20397;-39
2021/11/11 02:02:40;;;;;;;;;;;;;;;17.86;56.26;100191.66;2059131;28;19925;-39
2021/11/11 02:03:40;;;;;;;;;;;;;;;17.88;56.27;100190.50;2063517;28;19917;-39
2021/11/11 02:04:40;;;;;;;;;;;;;;;17.87;56.10;100188.78;2060370;28;20358;-39
2021/11/11 02:05:41;;;;;;;;;;;;;;;17.88;56.14;100197.81;2060658;28;19924;-38
2021/11/11 02:06:42;;;;;;;;;;;;;;;17.89;56.09;100200.44;2061293;28;19925;-39
2021/11/11 02:07:43;;;;;;;;;;;;;;;17.90;56.01;100213.03;2060007;28;20242;-39
2021/11/11 02:08:44;;;;;;;;;;;;;;;17.91;56.24;100217.53;2062396;28;19929;-39
2021/11/11 02:09:44;;;;;;;;;;;;;;;17.92;55.97;100207.47;2060600;28;19928;-39
2021/11/11 02:10:45;;;;;;;;;;;;;;;17.90;56.17;100204.88;2060361;28;19944;-39
2021/11/11 02:11:49;;;;;;;;;;;;;;;17.92;55.93;100196.56;2061255;28;19913;-39
2021/11/11 02:12:49;;;;;;;;;;;;;;;17.94;56.08;100191.81;2058870;28;19922;-39
2021/11/11 02:13:50;;;;;;;;;;;;;;;17.94;56.01;100194.56;2064055;28;19909;-39
2021/11/11 02:14:50;;;;;;;;;;;;;;;17.95;56.11;100193.53;2061294;28;19918;-39
2021/11/11 02:15:51;;;;;;;;;;;;;;;17.96;56.03;100187.09;2061181;28;20004;-39
2021/11/11 02:16:51;;;;;;;;;;;;;;;17.95;55.77;100177.19;2063633;28;20286;-39
2021/11/11 02:17:52;;;;;;;;;;;;;;;17.96;55.94;100170.72;2065859;28;19925;-39
2021/11/11 02:18:53;;;;;;;;;;;;;;;17.97;56.02;100176.03;2069405;28;20270;-39
2021/11/11 02:20:16;;;;;;;;;;;;;;;17.98;55.90;100183.22;2059655;28;19937;-39
2021/11/11 02:21:17;;;;;;;;;;;;;;;17.98;55.83;100183.22;2056853;28;19944;-39
2021/11/11 02:22:18;;;;;;;;;;;;;;;17.96;55.84;100190.69;2061293;28;20044;-39
2021/11/11 02:23:19;;;;;;;;;;;;;;;17.99;55.72;100186.81;2062344;28;19917;-39
2021/11/11 02:24:20;;;;;;;;;;;;;;;17.98;56.00;100188.69;2060745;28;19941;-39
2021/11/11 02:25:22;;;;;;;;;;;;;;;17.98;55.99;100188.69;2058605;28;20271;-39
2021/11/11 02:26:22;;;;;;;;;;;;;;;17.98;56.10;100177.78;2062462;28;20652;-39
2021/11/11 02:27:23;;;;;;;;;;;;;;;17.98;55.91;100177.78;2061937;28;19918;-39
2021/11/11 02:28:23;;;;;;;;;;;;;;;17.98;56.07;100172.31;2059859;28;19960;-39
2021/11/11 02:29:23;;;;;;;;;;;;;;;17.99;55.91;100179.47;2060535;28;19922;-39
2021/11/11 02:30:25;;;;;;;;;;;;;;;17.98;55.76;100169.59;2058782;28;20255;-39
2021/11/11 02:31:25;;;;;;;;;;;;;;;17.97;55.98;100167.84;2059996;28;19923;-39
2021/11/11 02:32:30;;;;;;;;;;;;;;;17.98;56.06;100166.88;2061854;28;20271;-39
2021/11/11 02:33:30;;;;;;;;;;;;;;;17.98;56.01;100166.88;2060216;28;19968;-39
2021/11/11 02:34:30;;;;;;;;;;;;;;;17.97;56.08;100159.66;2061487;28;19917;-39
2021/11/11 02:35:30;;;;;;;;;;;;;;;17.96;56.06;100166.13;2057945;28;19967;-39
2021/11/11 02:36:31;;;;;;;;;;;;;;;17.96;55.93;100163.41;2061857;28;19921;-39
2021/11/11 02:37:32;;;;;;;;;;;;;;;17.96;56.00;100163.41;2061361;28;19928;-39
2021/11/11 02:38:32;;;;;;;;;;;;;;;17.95;55.82;100158.94;2061491;28;20458;-39
2021/11/11 02:39:34;;;;;;;;;;;;;;;17.94;56.07;100165.41;2060327;28;19929;-39
2021/11/11 02:40:35;;;;;;;;;;;;;;;17.95;55.94;100161.66;2059533;28;19913;-38
2021/11/11 02:41:35;;;;;;;;;;;;;;;17.95;55.88;100161.66;2061795;28;19922;-39
2021/11/11 02:42:36;;;;;;;;;;;;;;;17.94;56.02;100159.97;2061710;28;20220;-39
2021/11/11 02:43:37;;;;;;;;;;;;;;;17.95;55.82;100171.72;2059987;28;19967;-39
2021/11/11 02:44:42;;;;;;;;;;;;;;;17.94;55.84;100165.41;2060734;28;19921;-39
2021/11/11 02:45:45;;;;;;;;;;;;;;;17.94;55.85;100162.69;2061904;28;19921;-38
2021/11/11 02:46:45;;;;;;;;;;;;;;;17.94;56.10;100154.50;2062149;28;20241;-39
2021/11/11 02:47:45;;;;;;;;;;;;;;;17.94;55.95;100153.66;2058499;28;20636;-42
2021/11/11 02:48:46;;;;;;;;;;;;;;;17.94;55.93;100151.78;2063067;28;19914;-39
2021/11/11 02:49:46;;;;;;;;;;;;;;;17.93;55.93;100152.78;2061815;28;19921;-39
2021/11/11 02:50:47;;;;;;;;;;;;;;;17.94;55.97;100150.91;2061757;28;20320;-39
2021/11/11 02:51:48;;;;;;;;;;;;;;;17.93;55.97;100155.53;2063307;28;19917;-39
2021/11/11 02:52:49;;;;;;;;;;;;;;;17.92;55.85;100148.31;2060506;28;19936;-39
2021/11/11 02:53:49;;;;;;;;;;;;;;;17.91;56.06;100149.34;2060287;28;19921;-39
2021/11/11 02:54:49;;;;;;;;;;;;;;;17.91;55.92;100152.06;2062783;28;20647;-39
2021/11/11 02:55:50;;;;;;;;;;;;;;;17.92;55.98;100156.50;2061290;28;19922;-39
2021/11/11 02:56:51;;;;;;;;;;;;;;;17.92;55.98;100155.66;2061411;28;19960;-39
2021/11/11 02:57:52;;;;;;;;;;;;;;;17.91;55.92;100149.34;2061831;28;20374;-39
2021/11/11 02:58:52;;;;;;;;;;;;;;;17.91;55.96;100143.88;2060248;28;19917;-39
2021/11/11 02:59:55;;;;;;;;;;;;;;;17.90;55.99;100142.13;2060095;28;20356;-39
2021/11/11 03:01:03;;;;;;;;;;;;;;;17.90;55.97;100142.13;2056357;28;20560;-39
2021/11/11 03:02:04;;;;;;;;;;;;;;;17.90;56.08;100136.69;2059189;28;19944;-39
2021/11/11 03:03:04;;;;;;;;;;;;;;;17.89;55.99;100140.44;2058216;28;19960;-39
2021/11/11 03:04:04;;;;;;;;;;;;;;;17.88;56.03;100141.41;2061399;28;20056;-39
2021/11/11 03:05:06;;;;;;;;;;;;;;;17.88;56.14;100138.69;2060465;28;20524;-39
2021/11/11 03:06:07;;;;;;;;;;;;;;;17.88;55.98;100146.00;2063139;28;19917;-39
2021/11/11 03:07:07;;;;;;;;;;;;;;;17.88;56.07;100146.00;2060964;28;20008;-39
2021/11/11 03:08:09;;;;;;;;;;;;;;;17.86;56.19;100135.25;2060733;28;19910;-39
2021/11/11 03:09:09;;;;;;;;;;;;;;;17.87;56.02;100139.69;2062279;28;20000;-39
2021/11/11 03:10:11;;;;;;;;;;;;;;;17.87;55.90;100138.84;2061743;28;19997;-40
2021/11/11 03:11:12;;;;;;;;;;;;;;;17.87;55.98;100142.44;2061344;28;19923;-39
2021/11/11 03:12:12;;;;;;;;;;;;;;;17.89;56.06;100142.31;2061177;28;20672;-39
2021/11/11 03:13:14;;;;;;;;;;;;;;;17.88;56.09;100138.69;2061869;28;19937;-39
2021/11/11 03:14:14;;;;;;;;;;;;;;;17.89;55.87;100143.16;2060659;28;19918;-39
2021/11/11 03:15:14;;;;;;;;;;;;;;;17.89;56.10;100143.16;2061812;28;19917;-39
2021/11/11 03:16:15;;;;;;;;;;;;;;;17.89;56.10;100145.88;2061948;28;19917;-39
2021/11/11 03:17:16;;;;;;;;;;;;;;;17.90;55.99;100147.59;2061779;28;19925;-39
2021/11/11 03:18:16;;;;;;;;;;;;;;;17.90;56.05;100147.59;2060934;28;19918;-39
2021/11/11 03:19:16;;;;;;;;;;;;;;;17.91;55.99;100143.88;2059888;28;19918;-39
2021/11/11 03:20:17;;;;;;;;;;;;;;;17.92;55.88;100133.84;2061494;28;19957;-39
2021/11/11 03:21:17;;;;;;;;;;;;;;;17.92;56.17;100144.75;2060984;28;19909;-38
2021/11/11 03:22:19;;;;;;;;;;;;;;;17.92;56.02;100137.41;2060793;28;19914;-39
2021/11/11 03:23:20;;;;;;;;;;;;;;;17.93;56.09;100139.16;2066702;28;19988;-39
2021/11/11 03:24:21;;;;;;;;;;;;;;;17.92;56.20;100134.69;2059992;28;19917;-39
2021/11/11 03:25:23;;;;;;;;;;;;;;;17.93;56.09;100128.25;2061837;28;19948;-39
2021/11/11 03:26:23;;;;;;;;;;;;;;;17.94;55.92;100131.81;2062152;28;20310;-39
2021/11/11 03:27:24;;;;;;;;;;;;;;;17.93;56.08;100125.53;2060223;28;19917;-39
2021/11/11 03:28:25;;;;;;;;;;;;;;;17.93;55.93;100130.97;2062922;28;19922;-39
2021/11/11 03:29:25;;;;;;;;;;;;;;;17.93;56.10;100136.44;2059051;28;19917;-39
2021/11/11 03:30:27;;;;;;;;;;;;;;;17.94;56.15;100140.00;2061971;28;20055;-39
2021/11/11 03:31:27;;;;;;;;;;;;;;;17.93;55.96;100141.00;2063532;28;20335;-39
2021/11/11 03:32:27;;;;;;;;;;;;;;;17.93;55.91;100130.97;2060164;28;20266;-39
2021/11/11 03:33:28;;;;;;;;;;;;;;;17.94;55.95;100121.78;2055850;28;20305;-39
2021/11/11 03:34:28;;;;;;;;;;;;;;;17.94;56.07;100127.22;2060409;28;19928;-39
2021/11/11 03:35:29;;;;;;;;;;;;;;;17.94;56.02;100126.38;2063385;28;19925;-39
2021/11/11 03:36:29;;;;;;;;;;;;;;;17.94;56.17;100131.81;2062931;28;20573;-39
2021/11/11 03:37:29;;;;;;;;;;;;;;;17.93;56.17;100120.06;2060545;28;20602;-39
2021/11/11 03:38:30;;;;;;;;;;;;;;;17.93;56.15;100113.72;2060613;28;19918;-39
2021/11/11 03:39:30;;;;;;;;;;;;;;;17.93;56.13;100120.06;2061759;28;19921;-39
2021/11/11 03:40:32;;;;;;;;;;;;;;;17.93;56.03;100114.59;2063064;28;20731;-40
2021/11/11 03:41:32;;;;;;;;;;;;;;;17.94;55.97;100115.47;2060459;28;19925;-39
2021/11/11 03:42:33;;;;;;;;;;;;;;;17.93;56.18;100108.25;2060724;28;19913;-39
2021/11/11 03:43:33;;;;;;;;;;;;;;;17.93;56.09;100103.69;2061165;28;19917;-39
2021/11/11 03:44:34;;;;;;;;;;;;;;;17.92;55.95;100107.41;2061329;28;19924;-39
2021/11/11 03:45:35;;;;;;;;;;;;;;;17.92;56.00;100112.00;2056912;28;19943;-39
2021/11/11 03:46:35;;;;;;;;;;;;;;;17.91;55.89;100124.78;2061420;28;20012;-39
2021/11/11 03:47:35;;;;;;;;;;;;;;;17.92;55.98;100117.47;2064193;28;19917;-39
2021/11/11 03:48:36;;;;;;;;;;;;;;;17.90;55.96;100117.59;2060667;28;19917;-39
2021/11/11 03:49:37;;;;;;;;;;;;;;;17.92;56.03;100126.50;2062643;28;19969;-39
2021/11/11 03:50:37;;;;;;;;;;;;;;;17.91;56.08;100123.94;2060420;28;20027;-39
2021/11/11 03:51:38;;;;;;;;;;;;;;;17.91;56.06;100122.06;2058488;28;20565;-38
2021/11/11 03:52:38;;;;;;;;;;;;;;;17.92;55.99;100131.09;2068843;28;19924;-39
2021/11/11 03:53:39;;;;;;;;;;;;;;;17.90;56.01;100125.78;2060717;28;20611;-39
2021/11/11 03:54:39;;;;;;;;;;;;;;;17.90;56.17;100128.50;2058786;28;20007;-39
2021/11/11 03:55:40;;;;;;;;;;;;;;;17.89;56.05;100118.63;2058250;28;19918;-39
2021/11/11 03:56:42;;;;;;;;;;;;;;;17.89;56.13;100115.88;2060264;28;19917;-39
2021/11/11 03:57:42;;;;;;;;;;;;;;;17.90;55.97;100114.88;2061708;28;20299;-39
2021/11/11 03:58:45;;;;;;;;;;;;;;;17.90;56.12;100114.88;2059851;28;19996;-39
2021/11/11 03:59:45;;;;;;;;;;;;;;;17.90;56.04;100116.75;2061330;28;20354;-39
2021/11/11 04:00:46;;;;;;;;;;;;;;;17.89;56.18;100120.50;2061588;28;19909;-39
2021/11/11 04:01:46;;;;;;;;;;;;;;;17.88;55.90;100126.94;2059086;28;20058;-39
2021/11/11 04:02:47;;;;;;;;;;;;;;;17.88;56.16;100125.06;2061299;28;19917;-38
2021/11/11 04:03:48;;;;;;;;;;;;;;;17.88;55.97;100122.31;2060040;28;19917;-39
2021/11/11 04:04:49;;;;;;;;;;;;;;;17.88;56.13;100121.47;2061017;28;19917;-39
2021/11/11 04:05:49;;;;;;;;;;;;;;;17.86;55.99;100113.44;2061265;28;19922;-39
2021/11/11 04:06:50;;;;;;;;;;;;;;;17.87;55.98;100115.16;2061034;28;19968;-39
2021/11/11 04:07:50;;;;;;;;;;;;;;;17.87;56.12;100117.03;2058477;28;19921;-39
2021/11/11 04:08:51;;;;;;;;;;;;;;;17.87;56.08;100117.88;2058413;28;19970;-39
2021/11/11 04:09:52;;;;;;;;;;;;;;;17.86;56.11;100121.63;2060786;28;20011;-39
2021/11/11 04:10:52;;;;;;;;;;;;;;;17.86;56.09;100121.63;2059692;28;19985;-39
2021/11/11 04:11:53;;;;;;;;;;;;;;;17.84;55.97;100115.44;2060932;28;19983;-39
2021/11/11 04:12:54;;;;;;;;;;;;;;;17.85;56.00;100117.16;2060428;28;19916;-39
2021/11/11 04:13:54;;;;;;;;;;;;;;;17.85;55.97;100117.16;2061315;28;20354;-39
2021/11/11 04:14:54;;;;;;;;;;;;;;;17.86;56.18;100112.56;2061462;28;19924;-39
2021/11/11 04:15:56;;;;;;;;;;;;;;;17.87;56.12;100108.84;2059594;28;19917;-39
2021/11/11 04:16:56;;;;;;;;;;;;;;;17.88;56.10;100114.16;2059786;28;19924;-39
2021/11/11 04:17:56;;;;;;;;;;;;;;;17.87;56.13;100109.72;2060899;28;20008;-39
2021/11/11 04:18:57;;;;;;;;;;;;;;;17.88;56.07;100116.00;2059419;28;20393;-39
2021/11/11 04:19:57;;;;;;;;;;;;;;;17.88;56.01;100116.88;2061639;28;19917;-39
2021/11/11 04:20:58;;;;;;;;;;;;;;;17.88;55.90;100111.41;2060569;28;19925;-39
2021/11/11 04:21:58;;;;;;;;;;;;;;;17.88;56.09;100116.88;2061246;28;19917;-39
2021/11/11 04:22:58;;;;;;;;;;;;;;;17.89;56.07;100124.06;2062021;28;20279;-39
2021/11/11 04:23:59;;;;;;;;;;;;;;;17.89;55.91;100129.53;2055518;28;20635;-39
2021/11/11 04:25:02;;;;;;;;;;;;;;;17.90;55.91;100130.38;2058568;28;19963;-39
2021/11/11 04:27:31;;;;;;;;;;;;;;;17.89;55.91;100132.25;2060972;28;20353;-39
2021/11/11 04:28:31;;;;;;;;;;;;;;;17.90;55.94;100131.22;2060511;28;19932;-39
2021/11/11 04:29:33;;;;;;;;;;;;;;;17.89;56.15;100123.22;2061647;28;20538;-39
2021/11/11 04:30:34;;;;;;;;;;;;;;;17.90;55.95;100125.78;2060653;28;20310;-39
2021/11/11 04:31:50;;;;;;;;;;;;;;;17.89;55.91;100115.88;2062426;28;19953;-39
2021/11/11 04:32:51;;;;;;;;;;;;;;;17.88;56.13;100119.59;2057264;28;19917;-39
2021/11/11 04:33:55;;;;;;;;;;;;;;;17.90;55.90;100120.31;2060098;28;20054;-39
2021/11/11 04:34:58;;;;;;;;;;;;;;;17.89;56.10;100118.63;2059926;28;20119;-39
2021/11/11 04:36:03;;;;;;;;;;;;;;;17.89;56.13;100124.06;2060525;28;19917;-39
2021/11/11 04:39:39;;;;;;;;;;;;;;;17.88;55.98;100127.78;2057011;28;20036;-39
2021/11/11 04:45:07;;;;;;;;;;;;;;;17.85;55.95;100136.25;2060085;28;19965;-39
2021/11/11 04:51:53;;;;;;;;;;;;;;;17.82;56.08;100144.72;2045283;28;19952;-39
2021/11/11 05:03:39;;;;;;;;;;;;;;;17.79;56.17;100139.53;2048964;28;19925;-39
2021/11/11 05:04:39;;;;;;;;;;;;;;;17.78;56.08;100130.50;2044337;28;20261;-39
2021/11/11 05:05:40;;;;;;;;;;;;;;;17.78;56.24;100122.31;2050182;28;19921;-39
2021/11/11 05:06:40;;;;;;;;;;;;;;;17.78;56.20;100113.25;2053760;28;19967;-39
2021/11/11 05:07:41;;;;;;;;;;;;;;;17.77;56.08;100130.63;2060761;28;19936;-39
2021/11/11 05:08:42;;;;;;;;;;;;;;;17.77;56.13;100125.16;2059175;28;19918;-38
2021/11/11 05:09:42;;;;;;;;;;;;;;;17.77;56.39;100119.72;2060783;28;19936;-39
2021/11/11 05:10:44;;;;;;;;;;;;;;;17.76;56.42;100127.03;2060843;28;19917;-39
2021/11/11 05:11:45;;;;;;;;;;;;;;;17.76;56.29;100128.88;2060785;28;20012;-39
2021/11/11 05:12:45;;;;;;;;;;;;;;;17.76;56.22;100134.31;2057902;28;19916;-39
2021/11/11 05:13:46;;;;;;;;;;;;;;;17.75;56.28;100133.47;2060423;28;19918;-39
2021/11/11 05:14:46;;;;;;;;;;;;;;;17.75;56.40;100127.16;2065403;28;20310;-39
2021/11/11 05:15:47;;;;;;;;;;;;;;;17.74;56.37;100114.53;2062968;28;19917;-39
2021/11/11 05:16:47;;;;;;;;;;;;;;;17.74;56.39;100114.53;2061697;28;19983;-39
2021/11/11 05:17:48;;;;;;;;;;;;;;;17.74;56.45;100115.41;2058464;28;20003;-39
2021/11/11 05:18:48;;;;;;;;;;;;;;;17.74;56.17;100109.09;2062452;28;19922;-39
2021/11/11 05:19:50;;;;;;;;;;;;;;;17.75;56.21;100105.34;2059751;28;20341;-39
2021/11/11 05:20:50;;;;;;;;;;;;;;;17.74;56.24;100109.94;2058573;28;19917;-39
2021/11/11 05:21:51;;;;;;;;;;;;;;;17.74;56.23;100103.66;2062402;28;20024;-39
2021/11/11 05:22:51;;;;;;;;;;;;;;;17.74;56.24;100120.00;2058058;28;20672;-39
2021/11/11 05:23:52;;;;;;;;;;;;;;;17.74;56.33;100120.84;2059920;28;19928;-39
2021/11/11 05:24:53;;;;;;;;;;;;;;;17.75;56.45;100116.25;2058831;28;19914;-39
2021/11/11 05:25:53;;;;;;;;;;;;;;;17.74;56.23;100111.81;2058717;28;20340;-39
2021/11/11 05:26:54;;;;;;;;;;;;;;;17.74;56.33;100109.09;2062588;28;19952;-39
2021/11/11 05:27:55;;;;;;;;;;;;;;;17.75;56.44;100118.97;2060836;28;19936;-39
2021/11/11 05:28:55;;;;;;;;;;;;;;;17.74;56.21;100114.53;2060521;28;20339;-39
2021/11/11 05:29:56;;;;;;;;;;;;;;;17.74;56.21;100109.94;2062485;28;20000;-39
2021/11/11 05:30:56;;;;;;;;;;;;;;;17.75;56.22;100113.53;2059983;28;19917;-39
2021/11/11 05:31:56;;;;;;;;;;;;;;;17.74;56.23;100111.81;2064682;28;19982;-39
2021/11/11 05:32:57;;;;;;;;;;;;;;;17.74;56.28;100117.28;2059554;28;19917;-39
2021/11/11 05:33:57;;;;;;;;;;;;;;;17.74;56.17;100109.09;2059097;28;20040;-39
2021/11/11 05:34:58;;;;;;;;;;;;;;;17.75;56.29;100102.63;2059647;28;19921;-39
2021/11/11 05:35:58;;;;;;;;;;;;;;;17.74;56.16;100098.19;2058962;28;19910;-40
2021/11/11 05:36:58;;;;;;;;;;;;;;;17.75;56.25;100099.91;2059864;28;19924;-39
2021/11/11 05:37:59;;;;;;;;;;;;;;;17.74;56.21;100098.19;2059978;28;19921;-39